Terminal Aerodrome Forecast
Issued by NWS Spokane, WA

Home | Current Version | Previous Version | Text Only | Print | Product List | Glossary On
Versions: 1 2 3 4 5 6 7 8 9 10 11 12 13 14 15 16 17 18 19 20 21 22 23 24 25 26 27 28 29 30 31 32 33
000
FTUS46 KOTX 221252 AAA
TAFEAT
TAF AMD
KEAT 221252Z 2213/2312 00000KT 2SM BCFG SCT001 OVC016
     FM221600 VRB03KT 3SM -RA BR BKN007 OVC012
     FM221900 VRB03KT 1 1/2SM -SNRA OVC010
     FM222200 30003KT 3SM BR OVC015
     FM230500 VRB02KT 1/2SM FG VV003=

USA.gov is the U.S. government's official web portal to all federal, state and local government web resources and services.